Aeroporto :
LOGIN :

Iscrizione | Disclaimer

   EN    FR    IT 

 










Sommario :    VFR   VFR Marginale   IFR   IFR Intensivo   IFR Molto Intensivo
Visibilità : 
Base nubi : 
>= 8 km
>= 3000ft
5 / 8 km
1000 / 3000 ft
1500m / 5 km
500 / 1000 ft
800 / 1500m
200 / 500 ft
< 800m
< 200 ft
Simboli :   Temporali  Nebbia  Neve Forte  Precipitazioni Forti  Vento > 20 kt
SIGMETs :   Varie  Temporali  Ghiacco  Turbolenza  Onda orograficha  Ceneri Vulcaniche






- Altitudine del aeroporto : 124 ft
- Codice IATA : NHT


EGWU - RAF Northolt

ULTIMO METAR :
  • 241150Z 25016KT 9999 RA FEW011 BKN013 11/10 Q1007 TEMPO 6000

METARs OBSOLETI :
  • 241120Z 24016KT 9999 -RA BKN011 OVC020 11/10 Q1007 RERA TEMPO 5000 RA RMK GRN TEMPO GRN
  • 241050Z 24017KT 9999 RA BKN009 BKN012 11/10 Q1007 TEMPO 5000
  • 241020Z 24014G24KT 9999 -RA SCT009 BKN014 11/09 Q1008 TEMPO 5000 RA RMK GRN TEMPO GRN
  • 240950Z 24015KT 9999 -DZ FEW011 BKN014 OVC020 11/09 Q1008 TEMPO 4000 RADZ RMK GRN TEMPO GRN
  • 240920Z 24018KT 6000 -DZ BKN017 11/08 Q1009 TEMPO 4000 RA BKN012 RMK WHT TEMPO GRN

TAF TAF EGWU
Valido dal 24 a 12 ore il 25 a 06 ore UTC


241034Z 2412/2506 24018G28KT 9999 BKN012
TEMPO 2412/2416 7000 -RA
PROB40
TEMPO 2412/2416 4000 RA -RADZ FEW012 BKN020
BECMG 2416/2419 FEW022 SCT040
BECMG 2418/2421 26012KT
PROB30
TEMPO 2419/2421 SCT022



MetMap, La meteo Aeronautica in un colpo d'occhio ! - Copyright ORBIFLY Dicembre 2007 - Disclaimer

ORBIFLY MET'MAP TEAM :

Programmazione e sviluppo : Alexandra Zaïnal
Concezione : Baudouin d'Aumeries
Aiuto per la programmazione : Marc-Olivier Méhu
Supporto tecnico e logistico : Manuel Goepfert
Aiuto per la traduzione : Arnaldo La Scala

Contatto : metmap@orbifly.com




FONTI E CREDITI :

   NOAA